Denver, CO (80261)

8:05 AM MST on February 07, 2016 (GMT -0700)
Platt Park | | Change Station
CLOSE
Current Station
Personal Weather Station
Location: Denver, CO
Elevation: 5289 ft
Nearby Weather Stations

Elev 5289 ft 39.69 °N, 104.98 °W | Updated 9 minutes ago

Partly Cloudy
Partly Cloudy
43.7 °F
Feels Like 39 °F
N
9.0
Wind Variable Wind from West

Today
High -- | Low -- °F
--% Chance of Precip.
Yesterday
High -- | Low -- °F
Precip. -- in
Pressure 30.22 in
Visibility 10.0 miles
Clouds Few 8000 ft
Scattered Clouds 16000 ft
Scattered Clouds 20000 ft
Windchill 39 °F
Dew Point 18 °F
Humidity 36%
Rainfall 0.00 in
Snow Depth Not available.
7:02 AM 5:26 PM
Waning Crescent, 1% visible
METAR KAPA 071453Z 32013KT 10SM FEW080 SCT160 SCT200 04/M09 A3021 RMK AO2 SLP234 T00391094 53016
Pressure 30.22 in
Visibility 10.0 miles
Clouds Few 8000 ft
Scattered Clouds 16000 ft
Scattered Clouds 20000 ft
Windchill 39 °F
Dew Point 18 °F
Humidity 36%
Rainfall 0.00 in
Snow Depth Not available.
7:02 AM 5:26 PM
Waning Crescent, 1% visible
METAR KAPA 071453Z 32013KT 10SM FEW080 SCT160 SCT200 04/M09 A3021 RMK AO2 SLP234 T00391094 53016

10-Day Weather Forecast

Almanac

Astronomy

Feb. 07, 2016 Rise Set
Actual Time
Civil Twilight
Nautical Twilight
Astronomical Twilight
Moon
Length of Visible Light
Length of Day
Tomorrow will be .
, % of the Moon is Illuminated

Today's Extremes

State Highs State Lows

Community

WunderPhotos

Upload Photos

1,891,211 photos uploaded!

WunderBlog® & News

Nearby

Air Quality

  Air Quality AQ Index Pollutant
Not available.

Snow Depth

Station Depth Elevation

Earthquake Activity

City Distance Mag. Time & Date
Minimum magnitude displayed is 2.5.

Coastal Water Temperatures

Place Temperature

Stations

Nearby Weather Stations

Station Location Temp. Windchill Dew Point Humidity Wind Precip. Elev Updated Type
                   

Watches & Warnings

There are currently no watches in effect.